Terminal Aerodrome Forecast
Issued by NWS

Current Version | Previous Version | Graphics & Text | Print | Product List | Glossary On
Versions: 1 2 3 4 5 6 7 8 9 10 11 12 13 14 15 16 17 18 19 20 21 22 23 24 25 26 27 28
276
FTUS41 KPBZ 241125
TAFMGW
TAF
KMGW 241125Z 2412/2512 00000KT 5SM BR SCT250
     FM241300 20003KT P6SM SCT250
     FM241500 22004KT P6SM SCT040
     FM250000 00000KT P6SM VCTS SCT040CB
     FM250500 19003KT P6SM VCTS BKN040CB
     FM250800 19003KT P6SM BKN040=

USA.gov is the U.S. government's official web portal to all federal, state and local government web resources and services.